Time;durP1;ratioP1;P1;durP2;ratioP2;P2;SDS_P1;SDS_P2;PMS_P1;PMS_P2;Temp;Humidity;BMP_temperature;BMP_pressure;BME280_temperature;BME280_humidity;BME280_pressure;Samples;Min_cycle;Max_cycle;Signal;HPM_P1;HPM_P2
2021/07/25 00:01:54;;;;;;;11.73;8.63;;;;;;;18.29;100.00;95297.75;5012397;28;20415;-72
2021/07/25 00:04:19;;;;;;;11.50;8.63;;;;;;;18.19;100.00;95285.72;5012312;28;20412;-72
2021/07/25 00:06:45;;;;;;;12.20;9.30;;;;;;;18.16;100.00;95302.56;5012015;28;20416;-73
2021/07/25 00:09:10;;;;;;;11.97;8.80;;;;;;;18.21;100.00;95299.50;5012108;28;20898;-73
2021/07/25 00:11:35;;;;;;;9.30;8.30;;;;;;;18.29;100.00;95307.41;5012183;28;20417;-73
2021/07/25 00:14:04;;;;;;;11.95;8.80;;;;;;;18.26;100.00;95313.78;5012219;28;20416;-73
2021/07/25 00:16:31;;;;;;;12.50;9.23;;;;;;;18.20;100.00;95309.16;5010699;28;20835;-73
2021/07/25 00:18:56;;;;;;;13.30;9.27;;;;;;;18.23;100.00;95314.09;5011807;28;20409;-73
2021/07/25 00:21:22;;;;;;;12.10;9.53;;;;;;;18.25;100.00;95325.25;5011976;28;20413;-73
2021/07/25 00:23:49;;;;;;;14.82;9.18;;;;;;;18.14;100.00;95326.31;5012073;28;20421;-72
2021/07/25 00:26:18;;;;;;;17.10;9.05;;;;;;;18.20;100.00;95329.28;5011742;28;20507;-73
2021/07/25 00:28:43;;;;;;;15.43;9.75;;;;;;;18.10;100.00;95338.09;5011913;28;20421;-73
2021/07/25 00:31:08;;;;;;;13.47;9.57;;;;;;;18.14;100.00;95341.22;5011882;28;20416;-73
2021/07/25 00:33:36;;;;;;;12.30;8.60;;;;;;;18.14;100.00;95336.81;5011699;28;20515;-73
2021/07/25 00:36:05;;;;;;;14.80;9.17;;;;;;;18.17;100.00;95319.13;5010252;28;20425;-72
2021/07/25 00:38:30;;;;;;;13.23;8.55;;;;;;;18.24;100.00;95305.25;5010587;28;20463;-73
2021/07/25 00:40:59;;;;;;;14.63;10.13;;;;;;;18.21;100.00;95312.63;5010467;28;20428;-73
2021/07/25 00:43:25;;;;;;;18.42;10.50;;;;;;;18.11;100.00;95310.91;5010467;28;20551;-74
2021/07/25 00:45:51;;;;;;;12.63;9.70;;;;;;;18.14;100.00;95289.63;5013589;28;20417;-75
2021/07/25 00:48:17;;;;;;;16.40;9.93;;;;;;;18.26;100.00;95269.22;5017253;28;20873;-73
2021/07/25 00:50:44;;;;;;;20.02;10.68;;;;;;;18.81;100.00;95249.66;5014612;28;20420;-74
2021/07/25 00:53:10;;;;;;;14.65;10.35;;;;;;;18.83;100.00;95234.56;5013578;28;20413;-73
2021/07/25 00:55:36;;;;;;;11.45;9.02;;;;;;;18.60;100.00;95255.28;5012159;28;20490;-73
2021/07/25 00:58:02;;;;;;;11.85;9.25;;;;;;;18.36;100.00;95266.50;5011613;28;20504;-73
2021/07/25 01:00:27;;;;;;;14.13;8.23;;;;;;;18.19;100.00;95256.91;5011313;28;20922;-73
2021/07/25 01:03:00;;;;;;;14.10;8.00;;;;;;;18.19;100.00;95272.63;5011364;28;20424;-73
2021/07/25 01:05:37;;;;;;;13.40;8.07;;;;;;;18.01;100.00;95289.22;5011076;28;20412;-75
2021/07/25 01:08:09;;;;;;;10.73;8.23;;;;;;;18.06;100.00;95283.53;5011369;28;20503;-73
2021/07/25 01:10:34;;;;;;;10.68;8.00;;;;;;;18.06;100.00;95283.53;5009831;28;20432;-73
2021/07/25 01:13:07;;;;;;;14.73;7.97;;;;;;;18.02;100.00;95274.31;5011255;28;20830;-73
2021/07/25 01:15:33;;;;;;;11.57;7.45;;;;;;;17.92;100.00;95286.72;5011036;28;20415;-73
2021/07/25 01:17:59;;;;;;;14.35;7.85;;;;;;;17.88;100.00;95296.66;5011677;28;20420;-73
2021/07/25 01:20:26;;;;;;;10.30;7.83;;;;;;;17.86;100.00;95302.03;5029015;28;20510;-73
2021/07/25 01:22:54;;;;;;;12.15;7.53;;;;;;;17.82;100.00;95300.72;5011120;28;20479;-73
2021/07/25 01:25:22;;;;;;;11.25;7.70;;;;;;;17.85;100.00;95303.03;5010910;28;20423;-76
2021/07/25 01:27:51;;;;;;;9.77;7.23;;;;;;;17.78;100.00;95307.22;5011154;28;20433;-77
2021/07/25 01:30:18;;;;;;;10.15;6.93;;;;;;;17.79;100.00;95303.63;5011092;28;20483;-76
2021/07/25 01:32:44;;;;;;;11.45;6.65;;;;;;;17.75;100.00;95293.56;5011111;28;20778;-77
2021/07/25 01:35:13;;;;;;;9.38;6.65;;;;;;;17.70;100.00;95295.84;5010889;28;20412;-78
2021/07/25 01:37:41;;;;;;;8.30;6.32;;;;;;;17.73;100.00;95291.13;5011077;28;20417;-77
2021/07/25 01:40:18;;;;;;;10.00;6.70;;;;;;;17.64;100.00;95294.63;5010889;28;20412;-76
2021/07/25 01:42:44;;;;;;;10.85;7.10;;;;;;;17.67;100.00;95307.44;5009651;28;20795;-76
2021/07/25 01:45:11;;;;;;;11.88;6.72;;;;;;;17.67;100.00;95315.28;5010600;28;20409;-78
2021/07/25 01:47:37;;;;;;;11.07;6.80;;;;;;;17.67;100.00;95308.25;5011043;28;20420;-76
2021/07/25 01:50:04;;;;;;;9.27;6.90;;;;;;;17.69;100.00;95315.13;5009079;28;20443;-76
2021/07/25 01:52:29;;;;;;;12.13;6.70;;;;;;;17.61;100.00;95314.09;5010618;28;20503;-77
2021/07/25 01:54:56;;;;;;;10.93;6.47;;;;;;;17.63;100.00;95308.72;5010953;28;20493;-76
2021/07/25 01:57:22;;;;;;;10.45;6.25;;;;;;;17.62;100.00;95307.88;5010568;28;20511;-76
2021/07/25 01:59:47;;;;;;;12.23;6.23;;;;;;;17.65;100.00;95309.41;5011148;28;20512;-76
2021/07/25 02:02:12;;;;;;;8.80;6.70;;;;;;;17.63;100.00;95299.06;5016649;23;20518;-75
2021/07/25 02:04:38;;;;;;;8.20;6.03;;;;;;;17.66;100.00;95293.50;4983838;28;20938;-74
2021/07/25 02:07:04;;;;;;;8.10;5.33;;;;;;;17.72;100.00;95293.88;4990732;28;20454;-75
2021/07/25 02:09:32;;;;;;;7.10;5.32;;;;;;;17.77;100.00;95287.25;4993236;28;20883;-74
2021/07/25 02:11:59;;;;;;;9.32;5.72;;;;;;;17.74;100.00;95300.63;4994859;28;20445;-75
2021/07/25 02:14:25;;;;;;;9.40;6.03;;;;;;;17.72;100.00;95292.06;4994748;28;20480;-74
2021/07/25 02:16:50;;;;;;;10.50;5.75;;;;;;;17.75;100.00;95278.72;4994126;28;20648;-75
2021/07/25 02:19:16;;;;;;;8.40;5.50;;;;;;;17.75;100.00;95267.38;4993100;28;20418;-74
2021/07/25 02:21:41;;;;;;;8.33;5.67;;;;;;;17.75;100.00;95268.22;4994630;28;20469;-75
2021/07/25 02:24:06;;;;;;;8.63;6.03;;;;;;;17.82;100.00;95264.03;4994205;28;20419;-74
2021/07/25 02:26:32;;;;;;;7.30;5.77;;;;;;;17.82;100.00;95287.59;4994385;28;20445;-74
2021/07/25 02:28:58;;;;;;;7.57;5.40;;;;;;;17.80;100.00;95294.81;4994315;28;20907;-75
2021/07/25 02:31:24;;;;;;;6.75;5.07;;;;;;;17.75;100.00;95296.19;4994300;28;20418;-74
2021/07/25 02:33:49;;;;;;;8.43;5.47;;;;;;;17.81;100.00;95306.09;4994350;28;20501;-75
2021/07/25 02:36:15;;;;;;;7.43;5.10;;;;;;;17.73;100.00;95304.22;4994102;28;20784;-74
2021/07/25 02:38:40;;;;;;;6.43;4.95;;;;;;;17.63;100.00;95304.28;4992751;28;20927;-74
2021/07/25 02:41:05;;;;;;;6.33;5.33;;;;;;;17.62;100.00;95309.69;4994107;28;20512;-74
2021/07/25 02:43:31;;;;;;;6.60;5.60;;;;;;;17.52;100.00;95298.47;4994232;28;20424;-74
2021/07/25 02:45:58;;;;;;;9.18;5.80;;;;;;;17.37;100.00;95295.56;4993936;28;20780;-74
2021/07/25 02:48:23;;;;;;;9.18;6.45;;;;;;;17.21;100.00;95285.75;4993723;28;20427;-74
2021/07/25 02:50:49;;;;;;;9.60;5.90;;;;;;;17.13;100.00;95293.50;4992747;28;20427;-75
2021/07/25 02:53:14;;;;;;;7.63;5.30;;;;;;;17.29;100.00;95292.84;4993821;28;20419;-75
2021/07/25 02:55:39;;;;;;;8.88;5.63;;;;;;;17.36;100.00;95296.53;4993672;28;20406;-75
2021/07/25 02:58:05;;;;;;;13.03;5.80;;;;;;;17.40;100.00;95290.03;4992639;28;20879;-75
2021/07/25 03:00:30;;;;;;;9.30;5.40;;;;;;;17.46;100.00;95288.59;4993746;28;20428;-75
2021/07/25 03:02:57;;;;;;;6.50;5.33;;;;;;;17.63;100.00;95291.19;4993830;28;20415;-74
2021/07/25 03:05:23;;;;;;;15.23;5.65;;;;;;;17.84;100.00;95279.63;4993488;28;20406;-74
2021/07/25 03:07:48;;;;;;;6.72;5.40;;;;;;;17.90;100.00;95292.91;4994063;28;20493;-74
2021/07/25 03:10:14;;;;;;;6.47;5.20;;;;;;;17.92;100.00;95284.91;4993470;28;20765;-74
2021/07/25 03:12:39;;;;;;;8.67;6.10;;;;;;;17.70;100.00;95290.59;4993889;28;20497;-75
2021/07/25 03:15:05;;;;;;;8.70;5.82;;;;;;;17.59;100.00;95289.84;4992215;28;20433;-75
2021/07/25 03:17:31;;;;;;;8.50;5.55;;;;;;;17.48;100.00;95294.50;4993357;28;20422;-75
2021/07/25 03:19:58;;;;;;;8.23;5.60;;;;;;;17.39;100.00;95298.81;4992099;28;20418;-75
2021/07/25 03:22:23;;;;;;;8.38;5.75;;;;;;;17.29;100.00;95296.31;4991924;28;20435;-74
2021/07/25 03:24:48;;;;;;;8.13;5.95;;;;;;;17.13;100.00;95299.59;4992481;28;20426;-74
2021/07/25 03:27:14;;;;;;;8.73;5.70;;;;;;;17.18;100.00;95305.19;4993162;28;20446;-74
2021/07/25 03:29:39;;;;;;;8.83;5.73;;;;;;;17.25;100.00;95309.84;4991946;28;20419;-74
2021/07/25 03:32:06;;;;;;;9.17;5.33;;;;;;;17.26;100.00;95307.06;4993252;28;20598;-74
2021/07/25 03:34:32;;;;;;;6.18;5.40;;;;;;;17.29;100.00;95308.56;4993137;28;20433;-74
2021/07/25 03:36:59;;;;;;;7.47;5.75;;;;;;;17.32;100.00;95310.88;4991641;28;20414;-74
2021/07/25 03:39:25;;;;;;;8.57;5.70;;;;;;;17.30;100.00;95304.97;4993107;28;20902;-74
2021/07/25 03:41:50;;;;;;;8.00;5.40;;;;;;;17.22;100.00;95300.47;4991776;28;20426;-74
2021/07/25 03:44:16;;;;;;;8.47;5.60;;;;;;;17.22;100.00;95305.72;4993103;28;20418;-74
2021/07/25 03:46:42;;;;;;;11.90;5.03;;;;;;;17.30;100.00;95316.25;4992713;28;20508;-74
2021/07/25 03:49:08;;;;;;;7.82;4.65;;;;;;;17.32;100.00;95308.28;5001386;28;20429;-74
2021/07/25 03:51:33;;;;;;;8.25;4.45;;;;;;;17.35;100.00;95315.81;5012220;28;20448;-75
2021/07/25 03:54:00;;;;;;;5.07;3.90;;;;;;;17.30;100.00;95323.28;5012429;28;20407;-75
2021/07/25 03:56:25;;;;;;;4.80;3.97;;;;;;;17.24;100.00;95316.03;5012156;28;20420;-75
2021/07/25 03:58:51;;;;;;;7.37;4.13;;;;;;;17.17;100.00;95313.19;5011052;28;20470;-75
2021/07/25 04:01:16;;;;;;;5.70;4.40;;;;;;;17.22;100.00;95323.22;5012002;28;20425;-75
2021/07/25 04:03:41;;;;;;;6.60;4.53;;;;;;;17.18;100.00;95317.44;5011029;28;20933;-75
2021/07/25 04:06:07;;;;;;;32.10;6.83;;;;;;;17.03;100.00;95308.47;5011861;28;20409;-75
2021/07/25 04:08:32;;;;;;;24.43;5.87;;;;;;;16.89;100.00;95307.97;5012181;28;20490;-75
2021/07/25 04:11:01;;;;;;;6.50;5.20;;;;;;;16.96;100.00;95313.44;5012003;28;20507;-75
2021/07/25 04:13:26;;;;;;;9.30;5.50;;;;;;;17.06;100.00;95309.00;5012106;28;20499;-75
2021/07/25 04:15:51;;;;;;;6.70;5.20;;;;;;;17.09;100.00;95310.47;5011721;28;20854;-75
2021/07/25 04:18:17;;;;;;;5.80;5.20;;;;;;;17.04;100.00;95315.31;5011691;28;20405;-75
2021/07/25 04:20:42;;;;;;;13.20;5.90;;;;;;;16.91;100.00;95315.69;5007464;28;20410;-75
2021/07/25 04:23:08;;;;;;;7.07;5.17;;;;;;;16.96;100.00;95312.63;4992279;28;20966;-75
2021/07/25 04:25:34;;;;;;;7.90;5.68;;;;;;;17.13;100.00;95320.50;4992028;28;20429;-75
2021/07/25 04:28:03;;;;;;;5.32;4.75;;;;;;;17.14;100.00;95321.34;4992221;28;20422;-75
2021/07/25 04:30:29;;;;;;;5.25;4.75;;;;;;;17.05;100.00;95320.41;4992113;28;20426;-75
2021/07/25 04:32:56;;;;;;;14.43;6.80;;;;;;;16.86;100.00;95325.75;4991811;28;20410;-75
2021/07/25 04:35:23;;;;;;;7.72;5.95;;;;;;;16.74;100.00;95319.06;4991666;28;20453;-75
2021/07/25 04:37:51;;;;;;;5.95;5.07;;;;;;;16.78;100.00;95315.19;4990812;28;20422;-75
2021/07/25 04:40:18;;;;;;;9.25;5.43;;;;;;;16.83;100.00;95326.84;4991909;28;20426;-75
2021/07/25 04:42:47;;;;;;;8.65;4.80;;;;;;;16.94;100.00;95323.22;4990684;28;20423;-75
2021/07/25 04:45:15;;;;;;;9.95;4.80;;;;;;;17.03;100.00;95334.63;4991653;28;20462;-75
2021/07/25 04:47:48;;;;;;;7.40;5.13;;;;;;;17.07;100.00;95333.34;4990515;28;20422;-75
2021/07/25 04:50:16;;;;;;;25.85;5.55;;;;;;;17.08;100.00;95332.38;5010379;28;20439;-75
2021/07/25 04:52:43;;;;;;;18.38;5.43;;;;;;;17.03;100.00;95327.59;5011552;28;20502;-75
2021/07/25 04:55:11;;;;;;;6.80;5.50;;;;;;;17.10;100.00;95336.50;5011184;28;20475;-75
2021/07/25 04:57:40;;;;;;;8.50;5.95;;;;;;;17.14;100.00;95335.25;5011466;28;20519;-75
2021/07/25 05:00:07;;;;;;;32.90;6.22;;;;;;;17.51;100.00;95342.16;5011163;28;20917;-75
2021/07/25 05:02:37;;;;;;;34.10;6.30;;;;;;;17.58;100.00;95345.81;5011169;28;20456;-75
2021/07/25 05:05:04;;;;;;;6.50;5.80;;;;;;;17.32;100.00;95347.53;5011348;28;20417;-75
2021/07/25 05:07:35;;;;;;;14.75;6.45;;;;;;;17.20;100.00;95357.34;5011560;28;20486;-74
2021/07/25 05:10:01;;;;;;;17.70;6.15;;;;;;;17.06;100.00;95352.66;5011263;28;20443;-75
2021/07/25 05:12:32;;;;;;;57.13;6.75;;;;;;;16.81;100.00;95348.91;5011173;28;20416;-75
2021/07/25 05:15:02;;;;;;;7.22;5.43;;;;;;;16.77;100.00;95343.16;5009875;28;20412;-74
2021/07/25 05:17:35;;;;;;;6.82;5.40;;;;;;;16.92;100.00;95348.72;5009891;28;20425;-74
2021/07/25 05:20:03;;;;;;;10.57;5.57;;;;;;;16.96;100.00;95351.88;5010966;28;20480;-76
2021/07/25 05:22:37;;;;;;;7.20;6.43;;;;;;;17.02;100.00;95356.50;5009949;28;20489;-77
2021/07/25 05:25:05;;;;;;;6.97;6.03;;;;;;;17.03;100.00;95359.00;5011186;28;20870;-75
2021/07/25 05:27:38;;;;;;;9.27;5.45;;;;;;;17.17;100.00;95361.13;5010975;28;20790;-78
2021/07/25 05:30:05;;;;;;;7.93;5.30;;;;;;;17.25;100.00;95354.31;5011205;28;20435;-77
2021/07/25 05:32:31;;;;;;;12.10;6.18;;;;;;;17.26;100.00;95361.19;5010039;28;20420;-77
2021/07/25 05:34:57;;;;;;;6.93;5.33;;;;;;;17.26;100.00;95361.19;5009750;28;20494;-76
2021/07/25 05:37:23;;;;;;;14.57;5.70;;;;;;;17.34;100.00;95353.44;5010821;28;20416;-76
2021/07/25 05:39:48;;;;;;;6.63;5.20;;;;;;;17.46;100.00;95359.25;5011006;28;20419;-77
2021/07/25 05:42:14;;;;;;;7.32;5.43;;;;;;;17.51;100.00;95365.72;5009235;28;20408;-77
2021/07/25 05:44:39;;;;;;;7.27;5.30;;;;;;;17.34;100.00;95358.66;5013740;28;20408;-76
2021/07/25 05:47:04;;;;;;;9.93;5.40;;;;;;;17.26;100.00;95366.44;5013651;28;20450;-76
2021/07/25 05:49:30;;;;;;;6.43;5.05;;;;;;;17.32;100.00;95369.28;4988506;28;20427;-75
2021/07/25 05:51:57;;;;;;;6.67;4.87;;;;;;;17.47;100.00;95364.38;4990723;28;20424;-76
2021/07/25 05:54:22;;;;;;;8.18;5.63;;;;;;;17.35;100.00;95365.53;4990591;28;20420;-76
2021/07/25 05:56:48;;;;;;;11.83;6.40;;;;;;;17.23;100.00;95359.69;4975549;28;20506;-76
2021/07/25 05:59:13;;;;;;;6.65;5.32;;;;;;;17.33;100.00;95354.41;4975710;28;20432;-76
2021/07/25 06:01:39;;;;;;;7.17;5.37;;;;;;;17.50;100.00;95369.31;4975488;28;20416;-76
2021/07/25 06:04:05;;;;;;;7.80;5.20;;;;;;;17.81;100.00;95358.50;4975513;28;20430;-76
2021/07/25 06:06:31;;;;;;;9.68;5.18;;;;;;;17.76;100.00;95358.97;4990262;28;20427;-76
2021/07/25 06:08:58;;;;;;;5.73;4.97;;;;;;;17.68;100.00;95364.06;4975525;28;20420;-76
2021/07/25 06:11:24;;;;;;;8.65;5.10;;;;;;;17.78;100.00;95357.00;4990326;28;20928;-75
2021/07/25 06:13:50;;;;;;;7.10;5.10;;;;;;;18.08;100.00;95363.63;4975418;28;20443;-75
2021/07/25 06:16:16;;;;;;;6.53;4.20;;;;;;;18.16;100.00;95364.66;4975066;28;20794;-75
2021/07/25 06:18:42;;;;;;;9.25;4.55;;;;;;;18.17;100.00;95368.91;4981453;28;20654;-75
2021/07/25 06:21:08;;;;;;;6.50;4.37;;;;;;;18.29;100.00;95375.56;4993383;28;20418;-75
2021/07/25 06:23:33;;;;;;;6.03;4.67;;;;;;;18.14;100.00;95377.94;4993381;28;20426;-75
2021/07/25 06:26:00;;;;;;;6.47;4.30;;;;;;;18.10;100.00;95372.16;4992643;28;20422;-75
2021/07/25 06:28:25;;;;;;;5.25;4.30;;;;;;;17.96;100.00;95364.84;4993318;28;20418;-75
2021/07/25 06:30:50;;;;;;;7.63;4.77;;;;;;;17.89;100.00;95369.03;4994507;28;20912;-75
2021/07/25 06:33:16;;;;;;;4.87;4.37;;;;;;;18.01;100.00;95369.63;4994578;28;20410;-75
2021/07/25 06:35:42;;;;;;;7.87;4.57;;;;;;;18.09;100.00;95365.25;4994230;28;20762;-76
2021/07/25 06:38:09;;;;;;;6.32;4.70;;;;;;;18.18;100.00;95362.72;4994455;28;20419;-76
2021/07/25 06:40:36;;;;;;;8.70;4.67;;;;;;;18.16;100.00;95362.03;4994348;28;20426;-75
2021/07/25 06:43:04;;;;;;;5.03;4.32;;;;;;;18.27;100.00;95359.16;4993128;28;20420;-75
2021/07/25 06:45:31;;;;;;;6.65;4.35;;;;;;;18.14;100.00;95357.78;4994062;28;20746;-75
2021/07/25 06:47:57;;;;;;;7.18;4.93;;;;;;;18.05;100.00;95357.84;4994388;28;20415;-75
2021/07/25 06:50:24;;;;;;;9.35;4.43;;;;;;;18.17;100.00;95350.56;5013694;28;20438;-75
2021/07/25 06:52:51;;;;;;;7.03;3.95;;;;;;;18.15;100.00;95342.88;5012445;28;20829;-76
2021/07/25 06:55:18;;;;;;;6.68;4.40;;;;;;;18.36;100.00;95348.59;4997206;28;20457;-75
2021/07/25 06:57:44;;;;;;;6.82;4.20;;;;;;;18.47;100.00;95344.88;4993471;28;20442;-75
2021/07/25 07:00:11;;;;;;;6.70;4.50;;;;;;;18.62;100.00;95345.13;4992456;28;20427;-75
2021/07/25 07:02:58;;;;;;;13.55;5.15;;;;;;;18.63;100.00;95350.22;4993794;28;20414;-75
2021/07/25 07:05:24;;;;;;;6.95;4.43;;;;;;;18.60;100.00;95336.59;4988574;28;20438;-75
2021/07/25 07:07:51;;;;;;;4.93;4.40;;;;;;;18.72;100.00;95340.59;4993959;28;20422;-75
2021/07/25 07:10:19;;;;;;;9.32;4.68;;;;;;;18.83;100.00;95345.56;4993648;28;20438;-75
2021/07/25 07:12:46;;;;;;;6.60;4.25;;;;;;;18.74;100.00;95354.41;4993930;28;20896;-75
2021/07/25 07:15:14;;;;;;;5.50;4.63;;;;;;;18.61;100.00;95346.09;4993568;28;20426;-75
2021/07/25 07:17:39;;;;;;;8.63;4.95;;;;;;;18.44;100.00;95344.38;4993606;28;20422;-75
2021/07/25 07:20:06;;;;;;;8.50;5.18;;;;;;;18.35;100.00;95333.00;5010910;28;20411;-75
2021/07/25 07:22:32;;;;;;;9.50;4.68;;;;;;;18.44;100.00;95345.19;4994193;28;20426;-75
2021/07/25 07:24:58;;;;;;;6.45;5.03;;;;;;;18.41;100.00;95347.31;4997751;28;20847;-75
2021/07/25 07:27:24;;;;;;;5.60;4.80;;;;;;;18.52;100.00;95334.75;5012828;28;20432;-75
2021/07/25 07:29:50;;;;;;;8.43;4.97;;;;;;;18.46;100.00;95340.59;5013115;28;20433;-75
2021/07/25 07:32:17;;;;;;;8.88;4.85;;;;;;;18.45;100.00;95343.38;5012923;28;20952;-75
2021/07/25 07:34:43;;;;;;;6.10;4.78;;;;;;;18.28;100.00;95360.81;5012999;28;20420;-75
2021/07/25 07:37:08;;;;;;;5.15;4.65;;;;;;;18.30;100.00;95357.06;5012674;28;20425;-75
2021/07/25 07:39:35;;;;;;;6.30;4.53;;;;;;;18.35;100.00;95353.97;5012900;28;20531;-75
2021/07/25 07:42:00;;;;;;;5.20;4.18;;;;;;;18.38;100.00;95343.19;5012814;28;20417;-75
2021/07/25 07:44:26;;;;;;;5.60;4.33;;;;;;;18.45;100.00;95353.88;5012947;28;20544;-75
2021/07/25 07:46:51;;;;;;;5.97;4.32;;;;;;;18.72;100.00;95352.91;5011279;28;20972;-74
2021/07/25 07:49:18;;;;;;;6.80;4.30;;;;;;;18.90;100.00;95347.59;5001419;28;20422;-74
2021/07/25 07:51:43;;;;;;;5.20;4.07;;;;;;;19.15;100.00;95346.69;4993134;28;20414;-74
2021/07/25 07:54:08;;;;;;;5.00;4.13;;;;;;;19.34;100.00;95348.22;4993320;28;20426;-74
2021/07/25 07:56:35;;;;;;;8.57;4.27;;;;;;;19.78;100.00;95348.00;4993136;28;20434;-74
2021/07/25 07:59:01;;;;;;;6.18;3.78;;;;;;;20.03;100.00;95352.28;4993252;28;20425;-75
2021/07/25 08:01:26;;;;;;;7.38;4.53;;;;;;;20.22;100.00;95350.31;5054013;23;20449;-77
2021/07/25 08:03:52;;;;;;;6.83;4.50;;;;;;;20.60;100.00;95354.03;5015331;28;20408;-78
2021/07/25 08:06:18;;;;;;;6.07;4.40;;;;;;;20.37;99.13;95348.63;5013403;28;20420;-77
2021/07/25 08:08:44;;;;;;;6.97;4.22;;;;;;;20.19;97.78;95353.25;5012723;28;20425;-78
2021/07/25 08:11:09;;;;;;;9.43;4.40;;;;;;;20.09;100.00;95358.66;5012710;28;20759;-79
2021/07/25 08:13:35;;;;;;;8.30;4.10;;;;;;;20.24;100.00;95351.75;5013736;28;20424;-79
2021/07/25 08:16:00;;;;;;;5.05;3.92;;;;;;;20.20;100.00;95347.00;5012746;28;20801;-77
2021/07/25 08:18:25;;;;;;;4.77;4.20;;;;;;;20.30;100.00;95350.28;5013020;28;20857;-78
2021/07/25 08:20:51;;;;;;;5.97;4.70;;;;;;;20.23;100.00;95352.75;4993706;28;20430;-78
2021/07/25 08:23:17;;;;;;;6.60;4.50;;;;;;;20.25;100.00;95352.59;4992161;28;20518;-78
2021/07/25 08:25:43;;;;;;;7.97;4.43;;;;;;;20.37;100.00;95348.63;5007311;28;20421;-78
2021/07/25 08:28:08;;;;;;;6.80;4.20;;;;;;;20.37;99.59;95348.63;5011860;28;20424;-78
2021/07/25 08:30:34;;;;;;;6.40;4.35;;;;;;;20.34;100.00;95348.16;5013140;28;20433;-77
2021/07/25 08:32:59;;;;;;;4.80;4.03;;;;;;;20.42;100.00;95348.94;5013218;28;20413;-78
2021/07/25 08:35:25;;;;;;;4.13;3.73;;;;;;;20.64;100.00;95342.19;5013047;28;20491;-78
2021/07/25 08:37:51;;;;;;;5.73;4.20;;;;;;;20.92;97.65;95339.97;5013251;28;20412;-78
2021/07/25 08:40:21;;;;;;;4.45;3.53;;;;;;;21.38;92.16;95341.91;5011434;28;20520;-78
2021/07/25 08:42:56;;;;;;;4.07;3.67;;;;;;;21.37;88.30;95345.56;5013223;28;20490;-78
2021/07/25 08:45:23;;;;;;;4.85;3.63;;;;;;;21.55;90.78;95342.66;5011327;28;20898;-78
2021/07/25 08:47:53;;;;;;;4.18;3.78;;;;;;;21.56;89.87;95349.56;5012763;28;20440;-78
2021/07/25 08:50:27;;;;;;;5.38;3.88;;;;;;;21.51;89.07;95352.72;5031843;28;20974;-77
2021/07/25 08:52:54;;;;;;;5.80;3.60;;;;;;;21.27;87.67;95357.09;5019047;28;20420;-76
2021/07/25 08:55:22;;;;;;;5.90;3.55;;;;;;;21.13;84.35;95352.53;5010950;28;20483;-77
2021/07/25 08:57:50;;;;;;;3.58;3.20;;;;;;;21.05;83.50;95339.41;5011707;28;20413;-77
2021/07/25 09:00:19;;;;;;;5.20;3.57;;;;;;;21.54;86.00;95341.00;5011700;28;20425;-78
2021/07/25 09:02:45;;;;;;;4.18;3.53;;;;;;;21.67;85.16;95346.53;5012340;28;20424;-76
2021/07/25 09:05:11;;;;;;;4.78;3.88;;;;;;;21.52;82.46;95354.34;5012447;28;20499;-78
2021/07/25 09:07:41;;;;;;;4.17;3.70;;;;;;;21.63;81.12;95355.78;5011341;28;20764;-76
2021/07/25 09:10:08;;;;;;;5.57;3.42;;;;;;;21.62;82.30;95343.59;5011218;28;20428;-75
2021/07/25 09:12:35;;;;;;;4.97;3.50;;;;;;;21.77;80.71;95349.75;5011448;28;20413;-76
2021/07/25 09:15:03;;;;;;;4.13;3.27;;;;;;;21.72;77.16;95349.44;5010205;28;20467;-76
2021/07/25 09:17:29;;;;;;;5.85;3.88;;;;;;;21.58;83.89;95356.31;5009142;28;20532;-76
2021/07/25 09:20:13;;;;;;;4.35;3.70;;;;;;;21.44;78.91;95359.69;5013450;28;20500;-76
2021/07/25 09:22:54;;;;;;;5.38;3.85;;;;;;;21.37;84.49;95356.91;5011449;28;20409;-76
2021/07/25 09:25:28;;;;;;;4.65;3.83;;;;;;;21.43;85.56;95372.03;5009616;28;20424;-76
2021/07/25 09:28:12;;;;;;;4.30;3.30;;;;;;;21.53;85.88;95382.34;5011308;28;20448;-76
2021/07/25 09:30:38;;;;;;;4.25;3.30;;;;;;;21.48;81.94;95387.31;5011029;28;20834;-76
2021/07/25 09:33:20;;;;;;;4.13;3.35;;;;;;;21.45;80.54;95392.94;5010979;28;20479;-76
2021/07/25 09:35:46;;;;;;;8.32;3.75;;;;;;;21.31;81.57;95388.34;5010953;28;20475;-76
2021/07/25 09:38:13;;;;;;;6.87;3.57;;;;;;;21.28;79.50;95381.59;5009775;28;20412;-76
2021/07/25 09:40:44;;;;;;;4.25;3.50;;;;;;;21.31;78.38;95386.53;5009699;28;20440;-76
2021/07/25 09:43:14;;;;;;;4.55;3.58;;;;;;;21.39;79.64;95394.41;5011121;28;20424;-76
2021/07/25 09:45:59;;;;;;;4.13;3.28;;;;;;;21.56;74.79;95386.44;5010573;28;20495;-76
2021/07/25 09:48:27;;;;;;;4.65;3.38;;;;;;;21.68;73.09;95392.97;5010214;28;20500;-76
2021/07/25 09:50:55;;;;;;;4.07;3.20;;;;;;;21.55;77.25;95384.81;5018102;28;20427;-76
2021/07/25 09:53:21;;;;;;;3.60;3.10;;;;;;;21.39;75.92;95389.16;5007117;28;20790;-76
2021/07/25 09:55:47;;;;;;;5.20;3.93;;;;;;;21.23;77.92;95387.41;5009311;28;20416;-76
2021/07/25 09:58:14;;;;;;;4.10;3.43;;;;;;;21.28;79.93;95378.97;5009180;28;20494;-77
2021/07/25 10:00:41;;;;;;;4.50;3.45;;;;;;;21.36;80.15;95386.88;5010918;28;20420;-77
2021/07/25 10:03:25;;;;;;;4.97;3.58;;;;;;;21.50;82.25;95386.13;5010921;28;20448;-76
2021/07/25 10:05:51;;;;;;;5.40;3.67;;;;;;;21.57;81.53;95388.09;5010521;28;20976;-76
2021/07/25 10:08:18;;;;;;;3.83;3.35;;;;;;;21.55;80.99;95385.63;5010777;28;20452;-76
2021/07/25 10:10:45;;;;;;;6.88;3.67;;;;;;;21.51;83.41;95384.34;5011083;28;20428;-78
2021/07/25 10:13:14;;;;;;;4.13;3.30;;;;;;;21.65;82.63;95380.13;5012200;28;20412;-78
2021/07/25 10:15:41;;;;;;;5.05;3.72;;;;;;;21.58;83.99;95379.19;4991878;28;20484;-79
2021/07/25 10:18:07;;;;;;;5.20;3.58;;;;;;;21.56;86.48;95383.81;4995510;28;20501;-79
2021/07/25 10:20:34;;;;;;;5.32;3.53;;;;;;;21.83;81.97;95372.75;5021116;28;20451;-77
2021/07/25 10:23:02;;;;;;;5.68;3.67;;;;;;;21.58;81.14;95372.13;5022573;28;20417;-77
2021/07/25 10:25:29;;;;;;;4.88;3.35;;;;;;;21.27;82.00;95372.88;5022382;28;20421;-77
2021/07/25 10:27:57;;;;;;;4.55;3.55;;;;;;;21.14;86.39;95369.19;5017600;28;20412;-77
2021/07/25 10:30:26;;;;;;;5.55;3.40;;;;;;;21.09;91.64;95372.31;5013089;28;20431;-77
2021/07/25 10:32:52;;;;;;;6.80;4.15;;;;;;;20.92;95.44;95370.75;5015488;28;20503;-78
2021/07/25 10:35:20;;;;;;;5.05;3.58;;;;;;;20.89;96.76;95373.72;5013519;28;20452;-77
2021/07/25 10:37:49;;;;;;;5.70;4.45;;;;;;;20.86;95.26;95369.59;5015381;28;20413;-78
2021/07/25 10:40:16;;;;;;;9.95;4.50;;;;;;;20.68;100.00;95376.88;5014964;28;20416;-77
2021/07/25 10:42:48;;;;;;;7.47;4.40;;;;;;;20.62;100.00;95373.13;5014446;28;20424;-78
2021/07/25 10:45:14;;;;;;;7.93;4.50;;;;;;;20.66;96.53;95382.31;5014551;28;20416;-78
2021/07/25 10:47:42;;;;;;;9.40;4.50;;;;;;;20.55;97.05;95382.69;5014976;28;20466;-78
2021/07/25 10:50:15;;;;;;;7.60;4.55;;;;;;;20.50;97.89;95385.78;5014312;28;20794;-78
2021/07/25 10:53:04;;;;;;;8.95;4.80;;;;;;;20.36;100.00;95385.59;5013928;28;20467;-78
2021/07/25 10:55:46;;;;;;;6.68;5.03;;;;;;;20.19;100.00;95388.25;5014892;28;20409;-78
2021/07/25 10:58:13;;;;;;;8.57;5.25;;;;;;;20.33;100.00;95381.53;5014046;28;20510;-77
2021/07/25 11:00:40;;;;;;;7.88;5.22;;;;;;;20.21;100.00;95390.72;5013916;28;20985;-78
2021/07/25 11:03:08;;;;;;;6.80;4.73;;;;;;;20.11;100.00;95395.34;5014980;28;20483;-78
2021/07/25 11:05:34;;;;;;;11.70;4.90;;;;;;;20.17;100.00;95390.25;5013559;28;20468;-77
2021/07/25 11:08:00;;;;;;;9.03;4.70;;;;;;;20.17;100.00;95385.00;5015310;28;20894;-77
2021/07/25 11:10:33;;;;;;;7.07;5.05;;;;;;;20.04;100.00;95397.78;5014743;28;20429;-78
2021/07/25 11:13:17;;;;;;;8.25;5.78;;;;;;;19.86;100.00;95395.31;5014961;28;20427;-75
2021/07/25 11:15:43;;;;;;;6.80;5.75;;;;;;;19.83;100.00;95393.81;5014397;28;20920;-77
2021/07/25 11:18:12;;;;;;;6.28;5.07;;;;;;;19.96;100.00;95400.41;5014739;28;20424;-77
2021/07/25 11:20:57;;;;;;;6.87;5.00;;;;;;;19.82;100.00;95400.06;5016096;28;20502;-78
2021/07/25 11:23:35;;;;;;;8.88;5.70;;;;;;;19.67;100.00;95393.78;5013471;28;20428;-78
2021/07/25 11:26:31;;;;;;;7.40;5.38;;;;;;;19.74;100.00;95401.88;5014164;28;20429;-78